createdAt,value
2022-10-01T00:00:12.470Z,70.60
2022-10-01T00:02:15.564Z,70.68
2022-10-01T00:04:17.639Z,70.60
2022-10-01T00:06:21.518Z,70.49
2022-10-01T00:08:23.605Z,70.40
2022-10-01T00:10:25.757Z,70.68
2022-10-01T00:12:30.289Z,70.32
2022-10-01T00:14:32.918Z,70.27
2022-10-01T00:16:34.915Z,70.63
2022-10-01T00:18:41.462Z,70.93
2022-10-01T00:20:43.772Z,70.40
2022-10-01T00:22:47.540Z,70.79
2022-10-01T00:24:49.688Z,71.23
2022-10-01T00:26:51.944Z,71.06
2022-10-01T00:28:59.830Z,70.85
2022-10-01T00:31:02.025Z,70.70
2022-10-01T00:33:06.547Z,70.94
2022-10-01T00:35:10.140Z,70.99
2022-10-01T00:37:12.584Z,71.36
2022-10-01T00:39:14.956Z,71.12
2022-10-01T00:41:18.854Z,70.92
2022-10-01T00:43:26.429Z,70.55
2022-10-01T00:45:29.652Z,70.92
2022-10-01T00:47:50.422Z,70.84
2022-10-01T00:49:59.309Z,71.13
2022-10-01T00:52:06.525Z,71.16
2022-10-01T00:54:26.461Z,70.95
2022-10-01T00:56:29.201Z,70.78
2022-10-01T00:58:31.545Z,70.90
2022-10-01T01:00:35.687Z,70.81
2022-10-01T01:02:37.881Z,70.58
2022-10-01T01:04:44.994Z,70.88
2022-10-01T01:06:56.009Z,71.50
2022-10-01T01:08:58.466Z,71.63
2022-10-01T01:11:14.286Z,71.69
2022-10-01T01:13:16.446Z,71.88
2022-10-01T01:15:37.081Z,71.67
2022-10-01T01:17:39.820Z,72.17
2022-10-01T01:20:00.376Z,71.97
2022-10-01T01:22:06.661Z,71.54
2022-10-01T01:24:39.753Z,71.63
2022-10-01T01:27:00.387Z,71.33
2022-10-01T01:29:24.064Z,72.36
2022-10-01T01:31:36.609Z,71.69
2022-10-01T01:33:43.739Z,71.91
2022-10-01T01:36:01.365Z,71.76
2022-10-01T01:38:09.547Z,71.71
2022-10-01T01:40:15.380Z,71.80
2022-10-01T01:42:23.120Z,71.43
2022-10-01T01:44:29.941Z,71.25
2022-10-01T01:46:36.179Z,71.33
2022-10-01T01:48:41.312Z,71.49
2022-10-01T01:51:15.595Z,71.47
2022-10-01T01:53:18.568Z,70.94
2022-10-01T01:55:26.541Z,71.29
2022-10-01T01:57:28.850Z,71.18
2022-10-01T01:59:35.345Z,71.46
2022-10-01T02:01:40.685Z,71.16
2022-10-01T02:03:45.592Z,71.40
2022-10-01T02:06:13.947Z,71.31
2022-10-01T02:08:41.219Z,71.09
2022-10-01T02:11:15.423Z,71.61
2022-10-01T02:13:45.183Z,71.69
2022-10-01T02:16:04.646Z,70.91
2022-10-01T02:18:12.068Z,70.90
2022-10-01T02:20:21.294Z,71.07
2022-10-01T02:22:40.366Z,71.38
2022-10-01T02:24:57.225Z,71.16
2022-10-01T02:27:02.374Z,71.01
2022-10-01T02:29:10.139Z,71.19
2022-10-01T02:31:14.855Z,70.98
2022-10-01T02:33:25.764Z,70.67
2022-10-01T02:35:36.053Z,70.38
2022-10-01T02:37:42.644Z,70.62
2022-10-01T02:39:47.503Z,70.45
2022-10-01T02:41:52.289Z,70.76
2022-10-01T02:44:01.801Z,70.83
2022-10-01T02:46:15.249Z,70.84
2022-10-01T02:48:18.490Z,70.66
2022-10-01T02:50:23.105Z,70.55
2022-10-01T02:52:31.559Z,70.85
2022-10-01T02:54:45.237Z,70.87
2022-10-01T02:57:06.170Z,71.09
2022-10-01T02:59:09.284Z,70.73
2022-10-01T03:01:11.434Z,70.44
2022-10-01T03:03:13.585Z,70.70
2022-10-01T03:05:16.780Z,70.78
2022-10-01T03:07:21.554Z,70.49
2022-10-01T03:09:23.527Z,70.71
2022-10-01T03:11:25.800Z,70.57
2022-10-01T03:13:28.081Z,70.57
2022-10-01T03:15:30.780Z,70.76
2022-10-01T03:17:35.429Z,71.21
2022-10-01T03:19:37.465Z,70.73
2022-10-01T03:21:40.052Z,70.86
2022-10-01T03:23:42.318Z,70.86
2022-10-01T03:25:44.287Z,70.71
2022-10-01T03:27:46.763Z,70.55
2022-10-01T03:29:49.158Z,70.33
2022-10-01T03:31:52.172Z,70.40
2022-10-01T03:33:54.389Z,70.40
2022-10-01T03:35:58.754Z,70.72
2022-10-01T03:38:02.984Z,70.74
2022-10-01T03:40:05.764Z,70.52
2022-10-01T03:42:07.710Z,70.52
2022-10-01T03:44:10.135Z,70.71
2022-10-01T03:46:12.297Z,70.26
2022-10-01T03:48:14.492Z,70.63
2022-10-01T03:50:16.720Z,70.93
2022-10-01T03:52:19.472Z,70.73
2022-10-01T03:54:21.850Z,70.50
2022-10-01T03:56:25.872Z,70.36
2022-10-01T03:58:28.343Z,70.55
2022-10-01T04:00:30.558Z,70.58
2022-10-01T04:02:32.765Z,70.21
2022-10-01T04:04:34.966Z,70.44
2022-10-01T04:06:36.964Z,70.14
2022-10-01T04:08:39.769Z,70.19
2022-10-01T04:10:42.678Z,70.10
2022-10-01T04:12:44.634Z,70.25
2022-10-01T04:14:46.848Z,70.30
2022-10-01T04:16:52.763Z,70.30
2022-10-01T04:18:54.973Z,70.29
2022-10-01T04:21:00.158Z,70.19
2022-10-01T04:23:02.659Z,69.96
2022-10-01T04:25:05.032Z,70.12
2022-10-01T04:27:07.029Z,69.81
2022-10-01T04:29:09.132Z,70.03
2022-10-01T04:31:26.712Z,69.76
2022-10-01T04:33:29.063Z,69.58
2022-10-01T04:35:31.601Z,69.50
2022-10-01T04:37:33.670Z,69.40
2022-10-01T04:39:35.710Z,69.53
2022-10-01T04:41:38.763Z,69.28
2022-10-01T04:43:41.579Z,69.21
2022-10-01T04:45:45.020Z,69.76
2022-10-01T04:47:51.944Z,69.64
2022-10-01T04:49:54.066Z,69.25
2022-10-01T04:51:56.145Z,69.64
2022-10-01T04:53:58.507Z,69.38
2022-10-01T04:56:00.863Z,69.29
2022-10-01T04:58:03.225Z,69.29
2022-10-01T05:00:08.003Z,69.64
2022-10-01T05:02:10.845Z,69.63
2022-10-01T05:04:13.202Z,69.78
2022-10-01T05:06:18.079Z,70.18
2022-10-01T05:08:23.617Z,69.75
2022-10-01T05:10:26.382Z,70.30
2022-10-01T05:12:28.657Z,69.94
2022-10-01T05:14:31.547Z,69.95
2022-10-01T05:16:33.584Z,70.39
2022-10-01T05:18:35.751Z,70.16
2022-10-01T05:20:38.543Z,70.15
2022-10-01T05:22:41.761Z,70.17
2022-10-01T05:24:44.030Z,70.47
2022-10-01T05:26:46.165Z,70.56
2022-10-01T05:28:48.067Z,70.31
2022-10-01T05:30:51.247Z,70.19
2022-10-01T05:33:00.039Z,71.43
2022-10-01T05:35:06.082Z,71.14
2022-10-01T05:37:08.562Z,71.45
2022-10-01T05:39:11.893Z,71.13
2022-10-01T05:41:13.755Z,71.29
2022-10-01T05:43:15.895Z,71.45
2022-10-01T05:45:55.704Z,71.15
2022-10-01T05:48:03.777Z,72.29
2022-10-01T05:50:06.321Z,72.79
2022-10-01T05:52:10.298Z,72.11
2022-10-01T05:54:13.959Z,71.81
2022-10-01T05:56:15.875Z,71.49
2022-10-01T05:58:17.857Z,71.42
2022-10-01T06:00:21.738Z,70.68
2022-10-01T06:02:24.177Z,70.82
2022-10-01T06:04:26.753Z,70.53
2022-10-01T06:06:29.562Z,70.25
2022-10-01T06:08:34.643Z,71.21
2022-10-01T06:10:37.230Z,70.72
2022-10-01T06:12:39.511Z,70.82
2022-10-01T06:14:44.670Z,70.85
2022-10-01T06:16:47.963Z,71.04
2022-10-01T06:18:57.850Z,72.04
2022-10-01T06:20:59.877Z,72.41
2022-10-01T06:23:10.299Z,71.93
2022-10-01T06:25:18.895Z,71.96
2022-10-01T06:27:21.504Z,72.08
2022-10-01T06:29:23.420Z,73.05
2022-10-01T06:31:28.099Z,72.42
2022-10-01T06:33:31.730Z,72.45
2022-10-01T06:35:43.385Z,72.43
2022-10-01T06:37:45.215Z,71.74
2022-10-01T06:39:47.162Z,71.67
2022-10-01T06:41:49.033Z,71.59
2022-10-01T06:43:51.463Z,71.27
2022-10-01T06:45:53.664Z,70.80
2022-10-01T06:48:03.148Z,69.87
2022-10-01T06:50:05.547Z,69.51
2022-10-01T06:52:27.999Z,69.65
2022-10-01T06:54:30.017Z,68.10
2022-10-01T06:56:32.407Z,67.90
2022-10-01T06:58:34.588Z,67.42
2022-10-01T07:00:39.196Z,67.29
2022-10-01T07:02:41.886Z,66.90
2022-10-01T07:04:43.966Z,66.37
2022-10-01T07:06:45.773Z,66.13
2022-10-01T07:08:51.441Z,66.30
2022-10-01T07:10:53.603Z,66.88
2022-10-01T07:12:55.663Z,66.34
2022-10-01T07:14:57.679Z,66.49
2022-10-01T07:17:02.191Z,66.15
2022-10-01T07:19:04.353Z,65.87
2022-10-01T07:21:06.882Z,66.18
2022-10-01T07:23:12.212Z,66.29
2022-10-01T07:25:15.191Z,66.82
2022-10-01T07:27:17.776Z,66.57
2022-10-01T07:29:19.897Z,67.01
2022-10-01T07:31:22.384Z,66.37
2022-10-01T07:33:27.692Z,66.66
2022-10-01T07:35:29.805Z,66.82
2022-10-01T07:37:32.215Z,66.77
2022-10-01T07:39:35.004Z,67.86
2022-10-01T07:41:37.405Z,67.97
2022-10-01T07:43:41.849Z,67.67
2022-10-01T07:45:47.420Z,67.90
2022-10-01T07:48:08.372Z,67.62
2022-10-01T07:50:10.498Z,67.74
2022-10-01T07:52:13.495Z,68.55
2022-10-01T07:54:16.393Z,68.41
2022-10-01T07:56:22.194Z,68.38
2022-10-01T07:58:24.641Z,67.01
2022-10-01T08:00:30.808Z,66.39
2022-10-01T08:02:32.991Z,66.51
2022-10-01T08:04:53.474Z,65.57
2022-10-01T08:06:55.522Z,65.21
2022-10-01T08:08:57.559Z,64.82
2022-10-01T08:11:06.104Z,63.22
2022-10-01T08:13:16.567Z,61.38
2022-10-01T08:15:19.198Z,61.74
2022-10-01T08:17:21.248Z,61.50
2022-10-01T08:19:23.727Z,60.88
2022-10-01T08:21:26.557Z,60.87
2022-10-01T08:23:30.121Z,60.65
2022-10-01T08:25:35.911Z,60.03
2022-10-01T08:27:37.977Z,59.81
2022-10-01T08:29:43.503Z,58.34
2022-10-01T08:31:45.534Z,58.44
2022-10-01T08:33:47.686Z,58.46
2022-10-01T08:35:49.965Z,58.20
2022-10-01T08:37:52.433Z,58.37
2022-10-01T08:39:55.426Z,58.27
2022-10-01T08:42:52.781Z,56.07
2022-10-01T08:44:55.126Z,57.89
2022-10-01T08:47:08.511Z,57.24
2022-10-01T08:49:22.671Z,56.41
2022-10-01T08:51:43.443Z,57.15
2022-10-01T08:54:32.671Z,55.77
2022-10-01T08:56:39.080Z,56.47
2022-10-01T08:58:55.030Z,55.49
2022-10-01T09:00:57.242Z,56.53
2022-10-01T09:03:05.610Z,56.37
2022-10-01T09:05:20.774Z,56.47
2022-10-01T09:07:47.384Z,54.94
2022-10-01T09:10:01.286Z,54.75
2022-10-01T09:12:21.055Z,53.66
2022-10-01T09:15:07.651Z,54.16
2022-10-01T09:17:24.740Z,54.61
2022-10-01T09:19:47.240Z,52.90
2022-10-01T09:22:05.555Z,53.20
2022-10-01T09:24:22.888Z,52.90
2022-10-01T09:26:25.844Z,53.95
2022-10-01T09:28:34.876Z,53.15
2022-10-01T09:30:40.859Z,54.40
2022-10-01T09:32:53.870Z,53.52
2022-10-01T09:34:57.929Z,54.69
2022-10-01T09:37:24.188Z,54.63
2022-10-01T09:39:39.741Z,54.31
2022-10-01T09:41:41.756Z,54.61
2022-10-01T09:43:44.259Z,54.61
2022-10-01T09:46:07.115Z,53.48
2022-10-01T09:48:35.375Z,52.49
2022-10-01T09:50:44.279Z,53.57
2022-10-01T09:52:59.321Z,53.69
2022-10-01T09:55:22.967Z,53.45
2022-10-01T09:58:11.032Z,53.23
2022-10-01T10:00:21.969Z,53.70
2022-10-01T10:02:32.460Z,54.21
2022-10-01T10:04:44.019Z,54.48
2022-10-01T10:06:47.433Z,53.90
2022-10-01T10:08:50.020Z,54.11
2022-10-01T10:11:01.061Z,54.05
2022-10-01T10:13:26.579Z,53.90
2022-10-01T10:15:33.388Z,53.79
2022-10-01T10:17:38.315Z,53.76
2022-10-01T10:19:41.434Z,54.09
2022-10-01T10:21:56.802Z,52.22
2022-10-01T10:24:04.780Z,53.35
2022-10-01T10:26:07.621Z,52.79
2022-10-01T10:28:23.976Z,51.23
2022-10-01T10:30:26.557Z,52.93
2022-10-01T10:32:28.891Z,52.86
2022-10-01T10:34:47.081Z,51.91
2022-10-01T10:36:50.039Z,52.94
2022-10-01T10:38:53.855Z,53.08
2022-10-01T10:40:57.734Z,52.63
2022-10-01T10:43:00.244Z,53.15
2022-10-01T10:45:04.454Z,52.77
2022-10-01T10:47:11.859Z,52.38
2022-10-01T10:49:40.015Z,52.71
2022-10-01T10:51:56.391Z,51.50
2022-10-01T10:54:01.364Z,52.18
2022-10-01T10:56:06.626Z,51.80
2022-10-01T10:58:12.543Z,52.52
2022-10-01T11:00:18.010Z,52.75
2022-10-01T11:02:24.369Z,52.72
2022-10-01T11:04:31.497Z,52.56
2022-10-01T11:06:34.033Z,52.65
2022-10-01T11:08:36.422Z,53.47
2022-10-01T11:11:15.889Z,53.62
2022-10-01T11:13:54.165Z,54.31
2022-10-01T11:16:26.675Z,54.29
2022-10-01T11:18:33.147Z,54.82
2022-10-01T11:20:52.060Z,55.26
2022-10-01T11:23:34.203Z,55.90
2022-10-01T11:25:51.868Z,56.23
2022-10-01T11:28:03.987Z,56.37
2022-10-01T11:30:14.619Z,56.99
2022-10-01T11:32:38.634Z,56.74
2022-10-01T11:35:19.695Z,56.91
2022-10-01T11:37:48.943Z,56.77
2022-10-01T11:39:56.706Z,57.07
2022-10-01T11:42:10.712Z,56.63
2022-10-01T11:44:35.256Z,57.10
2022-10-01T11:47:14.066Z,56.82
2022-10-01T11:49:44.159Z,56.82
2022-10-01T11:51:54.745Z,56.31
2022-10-01T11:54:02.846Z,56.66
2022-10-01T11:56:31.823Z,57.00
2022-10-01T11:58:52.892Z,56.72
2022-10-01T12:01:26.647Z,57.38
2022-10-01T12:03:39.227Z,56.81
2022-10-01T12:05:43.097Z,57.00
2022-10-01T12:07:53.340Z,56.88
2022-10-01T12:09:55.386Z,57.05
2022-10-01T12:12:35.376Z,57.05
2022-10-01T12:14:52.823Z,57.54
2022-10-01T12:17:19.226Z,57.62
2022-10-01T12:19:37.440Z,57.81
2022-10-01T12:21:49.681Z,58.27
2022-10-01T12:24:03.074Z,58.08
2022-10-01T12:26:23.150Z,57.86
2022-10-01T12:28:44.952Z,57.62
2022-10-01T12:31:22.966Z,57.44
2022-10-01T12:33:26.912Z,57.74
2022-10-01T12:35:58.541Z,57.44
2022-10-01T12:38:09.778Z,57.80
2022-10-01T12:40:28.908Z,57.44
2022-10-01T12:43:14.615Z,57.63
2022-10-01T12:45:30.963Z,58.17
2022-10-01T12:47:44.186Z,58.33
2022-10-01T12:49:51.872Z,57.57
2022-10-01T12:52:33.966Z,55.43
2022-10-01T12:54:41.976Z,55.87
2022-10-01T12:56:57.521Z,55.98
2022-10-01T12:59:09.704Z,56.08
2022-10-01T13:01:46.062Z,56.33
2022-10-01T13:04:28.533Z,56.31
2022-10-01T13:07:08.042Z,55.47
2022-10-01T13:09:39.292Z,55.90
2022-10-01T13:12:13.364Z,55.63
2022-10-01T13:14:18.448Z,56.11
2022-10-01T13:16:39.028Z,55.49
2022-10-01T13:18:47.330Z,55.94
2022-10-01T13:20:59.435Z,55.89
2022-10-01T13:23:18.729Z,56.33
2022-10-01T13:25:36.599Z,56.44
2022-10-01T13:27:44.097Z,56.59
2022-10-01T13:29:52.358Z,56.66
2022-10-01T13:32:22.082Z,56.56
2022-10-01T13:34:35.071Z,56.31
2022-10-01T13:36:37.588Z,55.92
2022-10-01T13:38:42.943Z,55.53
2022-10-01T13:40:45.519Z,55.35
2022-10-01T13:42:49.346Z,55.42
2022-10-01T13:45:05.777Z,55.28
2022-10-01T13:47:10.129Z,55.61
2022-10-01T13:49:26.750Z,54.96
2022-10-01T13:51:37.662Z,55.67
2022-10-01T13:53:42.888Z,55.31
2022-10-01T13:55:47.989Z,55.54
2022-10-01T13:57:50.065Z,56.19
2022-10-01T14:00:01.256Z,55.88
2022-10-01T14:02:33.901Z,55.34
2022-10-01T14:04:43.365Z,55.49
2022-10-01T14:06:55.223Z,55.47
2022-10-01T14:09:17.857Z,55.99
2022-10-01T14:11:45.856Z,55.99
2022-10-01T14:14:09.986Z,55.97
2022-10-01T14:16:13.772Z,56.53
2022-10-01T14:18:19.575Z,56.63
2022-10-01T14:20:28.978Z,56.96
2022-10-01T14:22:53.833Z,57.33
2022-10-01T14:25:01.706Z,57.05
2022-10-01T14:27:27.818Z,57.70
2022-10-01T14:29:59.957Z,57.33
2022-10-01T14:32:15.369Z,57.29
2022-10-01T14:34:56.265Z,57.56
2022-10-01T14:36:58.587Z,57.06
2022-10-01T14:39:21.864Z,57.77
2022-10-01T14:41:25.048Z,57.36
2022-10-01T14:43:29.487Z,57.55
2022-10-01T14:45:31.688Z,57.61
2022-10-01T14:50:58.743Z,57.99
2022-10-01T14:53:01.106Z,58.23
2022-10-01T14:55:12.021Z,58.35
2022-10-01T14:57:30.816Z,58.83
2022-10-01T14:59:39.404Z,58.87
2022-10-01T15:01:54.707Z,59.82
2022-10-01T15:03:59.468Z,58.98
2022-10-01T15:06:04.021Z,59.13
2022-10-01T15:08:16.718Z,59.21
2022-10-01T15:10:20.849Z,59.15
2022-10-01T15:12:24.013Z,58.94
2022-10-01T15:14:26.189Z,59.34
2022-10-01T15:16:29.433Z,59.85
2022-10-01T15:18:32.204Z,59.98
2022-10-01T15:20:35.360Z,60.96
2022-10-01T15:22:40.609Z,61.42
2022-10-01T15:24:49.240Z,62.86
2022-10-01T15:26:55.856Z,61.73
2022-10-01T15:29:13.667Z,63.45
2022-10-01T15:31:17.127Z,62.91
2022-10-01T15:33:29.406Z,63.92
2022-10-01T15:43:49.817Z,63.68
2022-10-01T15:46:25.606Z,65.50
2022-10-01T15:48:30.202Z,64.92
2022-10-01T15:50:36.731Z,65.12
2022-10-01T15:52:51.656Z,65.38
2022-10-01T15:55:15.595Z,65.66
2022-10-01T15:57:23.269Z,65.57
2022-10-01T15:59:25.958Z,65.02
2022-10-01T16:01:38.473Z,65.25
2022-10-01T16:03:55.232Z,66.02
2022-10-01T16:06:02.332Z,65.88
2022-10-01T16:08:04.587Z,65.93
2022-10-01T16:10:31.503Z,67.22
2022-10-01T16:12:36.624Z,66.36
2022-10-01T16:14:56.925Z,66.44
2022-10-01T16:17:17.422Z,66.96
2022-10-01T16:19:30.654Z,67.24
2022-10-01T16:21:40.578Z,66.84
2022-10-01T16:23:53.231Z,66.16
2022-10-01T16:25:55.265Z,65.82
2022-10-01T16:28:04.027Z,65.78
2022-10-01T16:30:32.210Z,65.94
2022-10-01T16:32:34.226Z,64.97
2022-10-01T16:34:36.835Z,64.99
2022-10-01T16:36:39.062Z,64.45
2022-10-01T16:38:40.953Z,64.73
2022-10-01T16:40:45.294Z,64.52
2022-10-01T16:42:50.775Z,64.49
2022-10-01T16:44:52.999Z,64.73
2022-10-01T16:46:56.401Z,64.83
2022-10-01T16:48:58.395Z,65.02
2022-10-01T16:51:00.536Z,65.16
2022-10-01T16:53:04.407Z,65.28
2022-10-01T16:55:24.171Z,65.35
2022-10-01T16:57:26.754Z,65.06
2022-10-01T16:59:29.035Z,64.20
2022-10-01T17:01:31.303Z,63.75
2022-10-01T17:03:33.537Z,63.58
2022-10-01T17:05:37.299Z,63.24
2022-10-01T17:07:39.300Z,63.79
2022-10-01T17:09:41.502Z,64.03
2022-10-01T17:11:43.683Z,64.48
2022-10-01T17:13:45.797Z,64.70
2022-10-01T17:15:48.623Z,64.91
2022-10-01T17:17:51.889Z,64.75
2022-10-01T17:19:53.966Z,64.12
2022-10-01T17:21:56.465Z,63.79
2022-10-01T17:23:58.607Z,63.67
2022-10-01T17:26:00.539Z,63.78
2022-10-01T17:28:06.845Z,63.98
2022-10-01T17:30:09.658Z,63.93
2022-10-01T17:32:12.483Z,64.15
2022-10-01T17:34:14.551Z,64.19
2022-10-01T17:36:16.990Z,63.73
2022-10-01T17:38:19.562Z,63.82
2022-10-01T17:40:22.034Z,64.21
2022-10-01T17:42:24.087Z,63.96
2022-10-01T17:44:26.969Z,63.78
2022-10-01T17:46:31.060Z,63.52
2022-10-01T17:48:33.115Z,63.26
2022-10-01T17:50:35.691Z,63.67
2022-10-01T17:52:39.857Z,63.59
2022-10-01T17:54:43.793Z,63.49
2022-10-01T17:56:46.138Z,63.88
2022-10-01T17:58:48.271Z,63.64
2022-10-01T18:00:50.409Z,63.87
2022-10-01T18:02:52.650Z,63.71
2022-10-01T18:04:54.711Z,63.63
2022-10-01T18:06:59.782Z,64.08
2022-10-01T18:09:01.882Z,63.94
2022-10-01T18:11:09.504Z,63.60
2022-10-01T18:13:11.713Z,63.60
2022-10-01T18:15:14.236Z,63.83
2022-10-01T18:17:16.385Z,63.79
2022-10-01T18:21:43.301Z,63.91
2022-10-01T18:23:45.598Z,63.74
2022-10-01T18:25:49.908Z,64.05
2022-10-01T18:27:52.048Z,63.91
2022-10-01T18:29:54.210Z,63.70
2022-10-01T18:32:21.668Z,63.42
2022-10-01T18:34:46.654Z,64.17
2022-10-01T18:36:58.604Z,64.26
2022-10-01T18:39:19.427Z,64.10
2022-10-01T18:41:35.389Z,64.10
2022-10-01T18:43:40.968Z,63.97
2022-10-01T18:46:01.901Z,64.07
2022-10-01T18:48:23.270Z,64.23
2022-10-01T18:50:37.432Z,64.31
2022-10-01T18:52:48.591Z,63.99
2022-10-01T18:55:21.127Z,64.07
2022-10-01T18:57:51.678Z,64.38
2022-10-01T19:00:08.957Z,64.23
2022-10-01T19:02:32.679Z,64.09
2022-10-01T19:05:01.583Z,64.23
2022-10-01T19:07:38.821Z,64.39
2022-10-01T19:10:23.211Z,64.61
2022-10-01T19:12:43.656Z,64.13
2022-10-01T19:15:03.719Z,64.08
2022-10-01T19:17:44.157Z,64.13
2022-10-01T19:19:58.237Z,63.91
2022-10-01T19:22:26.521Z,64.33
2022-10-01T19:24:43.300Z,64.30
2022-10-01T19:26:58.012Z,64.46
2022-10-01T19:29:30.160Z,64.85
2022-10-01T19:31:35.178Z,64.09
2022-10-01T19:33:56.101Z,64.32
2022-10-01T19:35:59.754Z,64.19
2022-10-01T19:38:13.748Z,64.31
2022-10-01T19:40:25.651Z,64.34
2022-10-01T19:42:34.012Z,64.37
2022-10-01T19:45:01.342Z,64.44
2022-10-01T19:47:23.685Z,64.60
2022-10-01T19:49:34.557Z,64.38
2022-10-01T19:51:46.208Z,64.42
2022-10-01T19:53:56.521Z,63.96
2022-10-01T19:56:02.249Z,64.26
2022-10-01T19:58:16.547Z,64.54
2022-10-01T20:00:21.894Z,64.12
2022-10-01T20:02:32.705Z,64.17
2022-10-01T20:04:48.650Z,64.55
2022-10-01T20:06:57.251Z,64.57
2022-10-01T20:09:02.324Z,64.46
2022-10-01T20:11:18.826Z,64.70
2022-10-01T20:13:38.317Z,64.81
2022-10-01T20:15:49.609Z,65.03
2022-10-01T20:18:13.209Z,65.17
2022-10-01T20:20:31.929Z,64.91
2022-10-01T20:22:51.584Z,64.57
2022-10-01T20:24:56.710Z,64.80
2022-10-01T20:27:37.095Z,65.65
2022-10-01T20:30:02.002Z,65.33
2022-10-01T20:32:33.722Z,65.57
2022-10-01T20:35:13.409Z,65.30
2022-10-01T20:37:35.190Z,65.73
2022-10-01T20:39:46.181Z,65.32
2022-10-01T20:41:53.348Z,65.39
2022-10-01T20:44:02.436Z,65.89
2022-10-01T20:46:12.438Z,65.54
2022-10-01T20:48:22.314Z,66.00
2022-10-01T20:50:47.241Z,65.81
2022-10-01T20:53:30.828Z,66.34
2022-10-01T20:55:39.343Z,66.02
2022-10-01T20:58:06.717Z,66.65
2022-10-01T21:00:28.843Z,67.16
2022-10-01T21:02:39.880Z,66.43
2022-10-01T21:04:56.637Z,67.09
2022-10-01T21:07:25.011Z,67.24
2022-10-01T21:09:41.666Z,67.62
2022-10-01T21:11:45.184Z,66.78
2022-10-01T21:14:16.831Z,67.53
2022-10-01T21:16:50.590Z,68.41
2022-10-01T21:19:07.782Z,68.35
2022-10-01T21:21:38.429Z,67.47
2022-10-01T21:24:11.699Z,68.38
2022-10-01T21:26:38.483Z,68.36
2022-10-01T21:28:43.539Z,68.03
2022-10-01T21:31:14.452Z,68.23
2022-10-01T21:33:23.558Z,68.26
2022-10-01T21:35:51.298Z,68.45
2022-10-01T21:38:14.205Z,68.93
2022-10-01T21:40:54.675Z,69.08
2022-10-01T21:42:59.899Z,68.53
2022-10-01T21:45:37.982Z,68.58
2022-10-01T21:47:52.177Z,68.25
2022-10-01T21:50:03.409Z,68.58
2022-10-01T21:52:31.218Z,68.57
2022-10-01T21:54:45.151Z,68.89
2022-10-01T21:56:55.128Z,68.80
2022-10-01T21:59:21.222Z,69.23
2022-10-01T22:01:35.812Z,68.94
2022-10-01T22:03:55.357Z,68.62
2022-10-01T22:06:13.379Z,68.43
2022-10-01T22:08:48.684Z,68.07
2022-10-01T22:10:59.283Z,68.31
2022-10-01T22:13:06.806Z,68.02
2022-10-01T22:15:28.761Z,67.91
2022-10-01T22:17:34.265Z,67.76
2022-10-01T22:19:43.125Z,67.87
2022-10-01T22:21:48.745Z,67.90
2022-10-01T22:23:59.267Z,67.95
2022-10-01T22:26:06.408Z,67.99
2022-10-01T22:28:18.931Z,67.84
2022-10-01T22:30:25.308Z,67.91
2022-10-01T22:32:33.421Z,68.11
2022-10-01T22:34:40.698Z,67.79
2022-10-01T22:36:49.285Z,67.70
2022-10-01T22:38:55.115Z,67.91
2022-10-01T22:41:10.367Z,68.04
2022-10-01T22:43:13.948Z,67.82
2022-10-01T22:45:17.896Z,67.79
2022-10-01T22:47:59.190Z,68.39
2022-10-01T22:50:33.179Z,68.15
2022-10-01T22:52:48.148Z,68.04
2022-10-01T22:55:05.541Z,68.05
2022-10-01T22:57:37.294Z,68.07
2022-10-01T22:59:51.217Z,68.16
2022-10-01T23:02:05.266Z,67.57
2022-10-01T23:04:36.448Z,67.90
2022-10-01T23:06:50.686Z,67.41
2022-10-01T23:09:08.107Z,67.25
2022-10-01T23:11:57.795Z,67.25
2022-10-01T23:14:30.525Z,66.93
2022-10-01T23:16:57.847Z,66.73
2022-10-01T23:19:12.186Z,66.93
2022-10-01T23:21:30.262Z,66.70
2022-10-01T23:24:13.987Z,66.93
2022-10-01T23:26:16.413Z,66.93
2022-10-01T23:28:39.279Z,67.32
2022-10-01T23:31:05.145Z,67.18
2022-10-01T23:33:49.985Z,66.91
2022-10-01T23:35:54.839Z,66.65
2022-10-01T23:37:59.599Z,66.86
2022-10-01T23:40:09.302Z,66.25
2022-10-01T23:42:35.278Z,64.84
2022-10-01T23:44:53.130Z,63.65
2022-10-01T23:46:59.050Z,63.64
2022-10-01T23:49:23.039Z,63.18
2022-10-01T23:51:29.263Z,61.68
2022-10-01T23:53:43.976Z,61.42
2022-10-01T23:56:10.622Z,61.63
2022-10-01T23:58:16.058Z,61.86
